Time,TemperatureF,DewpointF,PressureIn,WindDirection,WindDirectionDegrees,WindSpeedMPH,WindSpeedGustMPH,Humidity,HourlyPrecipIn,Conditions,Clouds,dailyrainin,SoftwareType,DateUTC
2013-11-23 00:02:00,31.5,28.9,30.56,NNW,342,6.0,15.0,90,0.00,,,0.02,meteohub,2013-11-23 06:02:00,
2013-11-23 00:07:00,31.5,29.1,30.55,NNW,342,8.0,15.0,91,0.00,,,0.02,meteohub,2013-11-23 06:07:00,
2013-11-23 00:12:00,31.5,28.9,30.55,NNW,333,4.0,13.0,90,0.00,,,0.00,meteohub,2013-11-23 06:12:00,
2013-11-23 00:17:00,31.5,28.9,30.55,NW,315,2.0,13.0,90,0.00,,,0.00,meteohub,2013-11-23 06:17:00,
2013-11-23 00:22:00,31.5,29.1,30.56,WNW,291,7.0,13.0,91,0.00,,,0.00,meteohub,2013-11-23 06:22:00,
2013-11-23 00:28:00,31.5,29.1,30.56,WNW,291,0.0,13.0,91,0.00,,,0.00,meteohub,2013-11-23 06:28:00,
2013-11-23 00:33:00,31.5,29.1,30.56,WNW,291,0.0,13.0,91,0.00,,,0.00,meteohub,2013-11-23 06:33:00,
2013-11-23 00:38:00,31.5,29.1,30.55,WNW,291,0.0,13.0,91,0.00,,,0.00,meteohub,2013-11-23 06:38:00,
2013-11-23 00:43:00,31.5,29.1,30.55,WNW,291,0.0,13.0,91,0.00,,,0.00,meteohub,2013-11-23 06:43:00,
2013-11-23 00:48:00,31.5,29.1,30.55,NNW,331,0.0,13.0,91,0.00,,,0.00,meteohub,2013-11-23 06:48:00,
2013-11-23 00:53:00,31.5,29.1,30.55,North,350,0.0,0.0,91,0.00,,,0.00,meteohub,2013-11-23 06:53:00,
2013-11-23 00:58:00,31.5,29.1,30.55,North,0,0.0,0.0,91,0.00,,,0.00,meteohub,2013-11-23 06:58:00,
2013-11-23 01:03:00,31.5,29.1,30.55,NW,314,0.0,0.0,91,0.00,,,0.00,meteohub,2013-11-23 07:03:00,
2013-11-23 01:08:00,31.5,29.1,30.55,North,355,0.0,0.0,91,0.00,,,0.00,meteohub,2013-11-23 07:08:00,
2013-11-23 01:13:00,31.5,29.1,30.54,North,355,0.0,0.0,91,0.00,,,0.00,meteohub,2013-11-23 07:13:00,
2013-11-23 01:18:00,31.3,28.9,30.54,NNW,334,0.0,0.0,91,0.00,,,0.00,meteohub,2013-11-23 07:18:00,
2013-11-23 01:23:00,31.3,28.9,30.54,NNW,347,0.0,0.0,91,0.00,,,0.00,meteohub,2013-11-23 07:23:00,
2013-11-23 01:28:00,30.9,28.6,30.54,NNW,343,0.0,0.0,91,0.00,,,0.00,meteohub,2013-11-23 07:28:00,
2013-11-23 01:33:00,30.9,28.6,30.54,NNW,336,0.0,0.0,91,0.00,,,0.00,meteohub,2013-11-23 07:33:00,
2013-11-23 01:38:00,30.9,28.6,30.54,NW,325,0.0,0.0,91,0.00,,,0.00,meteohub,2013-11-23 07:38:00,
2013-11-23 01:43:00,30.9,28.6,30.54,North,355,0.0,0.0,91,0.00,,,0.00,meteohub,2013-11-23 07:43:00,
2013-11-23 01:48:00,30.9,28.4,30.54,NNW,344,0.0,0.0,90,0.00,,,0.00,meteohub,2013-11-23 07:48:00,
2013-11-23 01:53:00,30.9,28.6,30.55,North,355,0.0,0.0,91,0.00,,,0.00,meteohub,2013-11-23 07:53:00,
2013-11-23 01:58:00,30.9,28.4,30.55,North,355,0.0,0.0,90,0.00,,,0.00,meteohub,2013-11-23 07:58:00,
2013-11-23 02:03:00,30.7,28.2,30.55,NNW,335,0.0,0.0,90,0.00,,,0.00,meteohub,2013-11-23 08:03:00,
2013-11-23 02:08:00,30.7,28.2,30.55,North,9,0.0,0.0,90,0.00,,,0.00,meteohub,2013-11-23 08:08:00,
2013-11-23 02:13:00,30.7,28.2,30.55,NNW,346,0.0,0.0,90,0.00,,,0.00,meteohub,2013-11-23 08:13:00,
2013-11-23 02:18:00,30.7,28.2,30.55,North,355,0.0,0.0,90,0.00,,,0.00,meteohub,2013-11-23 08:18:00,
2013-11-23 02:23:00,30.7,27.9,30.55,NNW,348,0.0,0.0,89,0.00,,,0.00,meteohub,2013-11-23 08:23:00,
2013-11-23 02:28:00,30.7,27.9,30.55,NNW,348,0.0,0.0,89,0.00,,,0.00,meteohub,2013-11-23 08:28:00,
2013-11-23 02:33:00,30.7,27.9,30.55,NNW,342,0.0,0.0,89,0.00,,,0.00,meteohub,2013-11-23 08:33:00,
2013-11-23 02:38:00,30.7,27.9,30.55,North,9,0.0,0.0,89,0.00,,,0.00,meteohub,2013-11-23 08:38:00,
2013-11-23 02:43:00,30.7,28.2,30.54,NNW,336,0.0,0.0,90,0.00,,,0.00,meteohub,2013-11-23 08:43:00,
2013-11-23 02:48:00,30.7,28.2,30.54,NNW,344,0.0,0.0,90,0.00,,,0.00,meteohub,2013-11-23 08:48:00,
2013-11-23 02:53:00,30.7,28.2,30.55,NNW,344,0.0,0.0,90,0.00,,,0.00,meteohub,2013-11-23 08:53:00,
2013-11-23 02:58:00,30.7,28.2,30.55,NNW,335,0.0,0.0,90,0.00,,,0.00,meteohub,2013-11-23 08:58:00,
2013-11-23 03:03:00,30.9,28.4,30.55,NNE,26,0.0,0.0,90,0.00,,,0.00,meteohub,2013-11-23 09:03:00,
2013-11-23 03:08:00,30.7,28.2,30.54,North,355,0.0,0.0,90,0.00,,,0.00,meteohub,2013-11-23 09:08:00,
2013-11-23 03:13:00,30.9,28.4,30.55,NNE,26,0.0,0.0,90,0.00,,,0.00,meteohub,2013-11-23 09:13:00,
2013-11-23 03:18:00,30.9,28.0,30.55,NNW,333,0.0,0.0,89,0.00,,,0.00,meteohub,2013-11-23 09:18:00,
2013-11-23 03:23:00,30.9,28.0,30.55,NNW,337,0.0,0.0,89,0.00,,,0.00,meteohub,2013-11-23 09:23:00,
2013-11-23 03:28:00,30.9,28.0,30.55,North,5,0.0,0.0,89,0.00,,,0.00,meteohub,2013-11-23 09:28:00,
2013-11-23 03:33:00,30.9,28.4,30.55,NNE,24,0.0,0.0,90,0.00,,,0.00,meteohub,2013-11-23 09:33:00,
2013-11-23 03:38:00,30.9,28.4,30.55,NNE,26,0.0,0.0,90,0.00,,,0.00,meteohub,2013-11-23 09:38:00,
2013-11-23 03:43:00,30.9,28.4,30.55,North,0,0.0,0.0,90,0.00,,,0.00,meteohub,2013-11-23 09:43:00,
2013-11-23 03:49:00,30.9,28.4,30.55,North,5,0.0,0.0,90,0.00,,,0.00,meteohub,2013-11-23 09:49:00,
2013-11-23 03:53:00,30.9,28.6,30.55,North,355,0.0,0.0,91,0.00,,,0.00,meteohub,2013-11-23 09:53:00,
2013-11-23 03:59:00,30.9,28.6,30.55,NNW,331,0.0,0.0,91,0.00,,,0.00,meteohub,2013-11-23 09:59:00,
2013-11-23 04:04:00,30.9,28.6,30.55,North,355,0.0,0.0,91,0.00,,,0.00,meteohub,2013-11-23 10:04:00,
2013-11-23 04:09:00,30.7,28.4,30.54,NNW,344,0.0,0.0,91,0.00,,,0.00,meteohub,2013-11-23 10:09:00,
2013-11-23 04:14:00,30.7,28.4,30.55,North,355,0.0,0.0,91,0.00,,,0.00,meteohub,2013-11-23 10:14:00,
2013-11-23 04:19:00,30.6,28.2,30.54,NW,308,0.0,0.0,91,0.00,,,0.00,meteohub,2013-11-23 10:19:00,
2013-11-23 04:24:00,30.6,28.0,30.55,NNW,331,0.0,0.0,90,0.00,,,0.00,meteohub,2013-11-23 10:24:00,
2013-11-23 04:29:00,30.6,28.0,30.55,NNW,340,0.0,0.0,90,0.00,,,0.00,meteohub,2013-11-23 10:29:00,
2013-11-23 04:34:00,30.6,28.0,30.55,NNW,342,0.0,0.0,90,0.00,,,0.00,meteohub,2013-11-23 10:34:00,
2013-11-23 04:39:00,30.7,28.2,30.54,NNW,335,0.0,0.0,90,0.00,,,0.00,meteohub,2013-11-23 10:39:00,
2013-11-23 04:44:00,30.7,28.2,30.54,NNW,342,0.0,0.0,90,0.00,,,0.00,meteohub,2013-11-23 10:44:00,
2013-11-23 04:49:00,30.7,28.2,30.54,NNW,340,0.0,0.0,90,0.00,,,0.00,meteohub,2013-11-23 10:49:00,
2013-11-23 04:54:00,30.7,27.9,30.54,NNW,330,0.0,0.0,89,0.00,,,0.00,meteohub,2013-11-23 10:54:00,
2013-11-23 04:59:00,30.9,28.0,30.55,NNW,333,0.0,0.0,89,0.00,,,0.00,meteohub,2013-11-23 10:59:00,
2013-11-23 05:04:00,30.9,28.0,30.55,NNW,338,0.0,0.0,89,0.00,,,0.00,meteohub,2013-11-23 11:04:00,
2013-11-23 05:09:00,30.9,28.0,30.55,NNW,344,0.0,0.0,89,0.00,,,0.00,meteohub,2013-11-23 11:09:00,
2013-11-23 05:14:00,30.9,28.0,30.56,North,351,0.0,0.0,89,0.00,,,0.00,meteohub,2013-11-23 11:14:00,
2013-11-23 05:19:00,30.9,28.0,30.56,NNW,337,0.0,0.0,89,0.00,,,0.00,meteohub,2013-11-23 11:19:00,
2013-11-23 05:24:00,30.9,27.9,30.56,ENE,74,0.0,0.0,88,0.00,,,0.00,meteohub,2013-11-23 11:24:00,
2013-11-23 05:29:00,30.9,27.9,30.56,ENE,74,0.0,0.0,88,0.00,,,0.00,meteohub,2013-11-23 11:29:00,
2013-11-23 05:34:00,30.9,28.0,30.56,ENE,74,0.0,0.0,89,0.00,,,0.00,meteohub,2013-11-23 11:34:00,
2013-11-23 05:39:00,30.9,27.9,30.56,ENE,74,0.0,0.0,88,0.00,,,0.00,meteohub,2013-11-23 11:39:00,
2013-11-23 05:44:00,30.9,27.9,30.56,ENE,74,0.0,0.0,88,0.00,,,0.00,meteohub,2013-11-23 11:44:00,
2013-11-23 05:49:00,30.9,27.9,30.56,ENE,74,0.0,0.0,88,0.00,,,0.00,meteohub,2013-11-23 11:49:00,
2013-11-23 05:54:00,30.9,28.0,30.56,ENE,74,0.0,0.0,89,0.00,,,0.00,meteohub,2013-11-23 11:54:00,
2013-11-23 05:59:00,30.9,28.0,30.56,ENE,74,0.0,0.0,89,0.00,,,0.00,meteohub,2013-11-23 11:59:00,
2013-11-23 06:04:00,30.9,28.0,30.56,ENE,74,0.0,0.0,89,0.00,,,0.00,meteohub,2013-11-23 12:04:00,
2013-11-23 06:09:00,30.7,27.9,30.56,ENE,74,0.0,0.0,89,0.00,,,0.00,meteohub,2013-11-23 12:09:00,
2013-11-23 06:14:00,30.7,27.9,30.57,ENE,74,0.0,0.0,89,0.00,,,0.00,meteohub,2013-11-23 12:14:00,
2013-11-23 06:19:00,30.7,27.9,30.56,ENE,74,0.0,0.0,89,0.00,,,0.00,meteohub,2013-11-23 12:19:00,
2013-11-23 06:24:00,30.7,27.9,30.56,ENE,74,0.0,0.0,89,0.00,,,0.00,meteohub,2013-11-23 12:24:00,
2013-11-23 06:29:00,30.7,27.9,30.56,ENE,74,0.0,0.0,89,0.00,,,0.00,meteohub,2013-11-23 12:29:00,
2013-11-23 06:34:00,30.7,27.9,30.56,ENE,74,0.0,0.0,89,0.00,,,0.00,meteohub,2013-11-23 12:34:00,
2013-11-23 06:39:00,30.7,27.9,30.57,ENE,74,0.0,0.0,89,0.00,,,0.00,meteohub,2013-11-23 12:39:00,
2013-11-23 06:44:00,30.7,27.9,30.57,ENE,74,0.0,0.0,89,0.00,,,0.00,meteohub,2013-11-23 12:44:00,
2013-11-23 06:49:00,30.7,28.2,30.58,ENE,74,0.0,0.0,90,0.00,,,0.00,meteohub,2013-11-23 12:49:00,
2013-11-23 06:54:00,30.7,27.9,30.57,ENE,74,0.0,0.0,89,0.00,,,0.00,meteohub,2013-11-23 12:54:00,
2013-11-23 06:59:00,30.7,27.9,30.58,ENE,74,0.0,0.0,89,0.00,,,0.00,meteohub,2013-11-23 12:59:00,
2013-11-23 07:04:00,30.7,27.9,30.58,ENE,74,0.0,0.0,89,0.00,,,0.00,meteohub,2013-11-23 13:04:00,
2013-11-23 07:09:00,30.7,27.9,30.58,ENE,74,0.0,0.0,89,0.00,,,0.00,meteohub,2013-11-23 13:09:00,
2013-11-23 07:14:00,30.7,27.9,30.58,ENE,74,0.0,0.0,89,0.00,,,0.00,meteohub,2013-11-23 13:14:00,
2013-11-23 07:19:00,30.7,27.9,30.59,ENE,74,0.0,0.0,89,0.00,,,0.00,meteohub,2013-11-23 13:19:00,
2013-11-23 07:24:00,30.7,27.9,30.59,ENE,74,0.0,0.0,89,0.00,,,0.00,meteohub,2013-11-23 13:24:00,
2013-11-23 07:29:00,30.7,27.9,30.60,ENE,74,0.0,0.0,89,0.00,,,0.00,meteohub,2013-11-23 13:29:00,
2013-11-23 07:34:00,30.7,27.9,30.60,ENE,74,0.0,0.0,89,0.00,,,0.00,meteohub,2013-11-23 13:34:00,
2013-11-23 07:39:00,30.7,27.9,30.60,ENE,73,0.0,0.0,89,0.00,,,0.00,meteohub,2013-11-23 13:39:00,
2013-11-23 07:44:00,30.7,27.9,30.60,ENE,73,0.0,0.0,89,0.00,,,0.00,meteohub,2013-11-23 13:44:00,
2013-11-23 07:49:00,30.7,27.9,30.60,ENE,74,0.0,0.0,89,0.00,,,0.00,meteohub,2013-11-23 13:49:00,
2013-11-23 07:54:00,30.7,27.9,30.60,ENE,73,0.0,0.0,89,0.00,,,0.00,meteohub,2013-11-23 13:54:00,
2013-11-23 07:59:00,30.7,27.9,30.60,ENE,73,0.0,0.0,89,0.00,,,0.00,meteohub,2013-11-23 13:59:00,
2013-11-23 08:04:00,30.7,27.9,30.59,ENE,73,0.0,0.0,89,0.00,,,0.00,meteohub,2013-11-23 14:04:00,
2013-11-23 08:09:00,30.7,27.9,30.60,ENE,73,0.0,0.0,89,0.00,,,0.00,meteohub,2013-11-23 14:09:00,
2013-11-23 08:15:00,30.7,27.9,30.60,ENE,73,0.0,0.0,89,0.00,,,0.00,meteohub,2013-11-23 14:15:00,
2013-11-23 08:20:00,30.7,27.9,30.60,ENE,73,0.0,0.0,89,0.00,,,0.00,meteohub,2013-11-23 14:20:00,
2013-11-23 08:25:00,30.9,28.0,30.60,ENE,73,0.0,0.0,89,0.00,,,0.00,meteohub,2013-11-23 14:25:00,
2013-11-23 08:30:00,30.7,27.9,30.60,ENE,71,0.0,0.0,89,0.00,,,0.00,meteohub,2013-11-23 14:30:00,
2013-11-23 08:35:00,30.7,27.9,30.60,ENE,71,0.0,0.0,89,0.00,,,0.00,meteohub,2013-11-23 14:35:00,
2013-11-23 08:40:00,30.7,27.9,30.60,ENE,71,0.0,0.0,89,0.00,,,0.00,meteohub,2013-11-23 14:40:00,
2013-11-23 08:45:00,30.7,27.9,30.60,ENE,71,0.0,0.0,89,0.00,,,0.00,meteohub,2013-11-23 14:45:00,
2013-11-23 08:50:00,30.7,27.9,30.59,ENE,71,0.0,0.0,89,0.00,,,0.00,meteohub,2013-11-23 14:50:00,
2013-11-23 08:55:00,30.7,28.2,30.60,North,355,0.0,0.0,90,0.00,,,0.00,meteohub,2013-11-23 14:55:00,
2013-11-23 09:00:00,30.9,28.4,30.61,NNE,24,0.0,0.0,90,0.00,,,0.00,meteohub,2013-11-23 15:00:00,
2013-11-23 09:05:00,30.9,28.4,30.61,North,350,0.0,0.0,90,0.00,,,0.00,meteohub,2013-11-23 15:05:00,
2013-11-23 09:10:00,30.9,28.0,30.61,NNE,15,0.0,0.0,89,0.00,,,0.00,meteohub,2013-11-23 15:10:00,
2013-11-23 09:15:00,30.9,28.0,30.61,NNE,17,0.0,0.0,89,0.00,,,0.00,meteohub,2013-11-23 15:15:00,
2013-11-23 09:20:00,30.9,28.0,30.61,North,349,0.0,0.0,89,0.00,,,0.00,meteohub,2013-11-23 15:20:00,
2013-11-23 09:25:00,30.9,28.4,30.61,NNE,26,0.0,0.0,90,0.00,,,0.00,meteohub,2013-11-23 15:25:00,
2013-11-23 09:30:00,31.1,28.6,30.62,NNW,335,0.0,0.0,90,0.00,,,0.00,meteohub,2013-11-23 15:30:00,
2013-11-23 09:35:00,30.9,28.0,30.63,NNW,345,0.0,0.0,89,0.00,,,0.00,meteohub,2013-11-23 15:35:00,
2013-11-23 09:40:00,30.9,28.0,30.63,NNE,27,0.0,0.0,89,0.00,,,0.00,meteohub,2013-11-23 15:40:00,
2013-11-23 09:45:00,30.9,28.0,30.63,North,0,0.0,0.0,89,0.00,,,0.00,meteohub,2013-11-23 15:45:00,
2013-11-23 09:50:00,30.9,28.0,30.63,NNW,335,0.0,0.0,89,0.00,,,0.00,meteohub,2013-11-23 15:50:00,
2013-11-23 09:55:00,31.1,28.2,30.63,NNW,341,0.0,0.0,89,0.00,,,0.00,meteohub,2013-11-23 15:55:00,
2013-11-23 10:00:00,31.1,28.2,30.63,NW,319,0.0,0.0,89,0.00,,,0.00,meteohub,2013-11-23 16:00:00,
2013-11-23 10:05:00,31.3,28.4,30.63,North,0,0.0,0.0,89,0.00,,,0.00,meteohub,2013-11-23 16:05:00,
2013-11-23 10:10:00,31.3,28.4,30.63,NNE,13,0.0,0.0,89,0.00,,,0.00,meteohub,2013-11-23 16:10:00,
2013-11-23 10:15:00,31.3,28.4,30.63,North,351,0.0,0.0,89,0.00,,,0.00,meteohub,2013-11-23 16:15:00,
2013-11-23 10:20:00,31.3,28.4,30.63,NNW,331,0.0,0.0,89,0.00,,,0.00,meteohub,2013-11-23 16:20:00,
2013-11-23 10:25:00,31.3,28.4,30.63,North,355,0.0,0.0,89,0.00,,,0.00,meteohub,2013-11-23 16:25:00,
2013-11-23 10:30:00,31.3,28.4,30.63,NNE,14,0.0,0.0,89,0.00,,,0.00,meteohub,2013-11-23 16:30:00,
2013-11-23 10:35:00,31.3,28.4,30.62,NNE,33,0.0,0.0,89,0.00,,,0.00,meteohub,2013-11-23 16:35:00,
2013-11-23 10:40:00,31.3,28.4,30.63,NNW,333,0.0,0.0,89,0.00,,,0.00,meteohub,2013-11-23 16:40:00,
2013-11-23 10:45:00,31.3,28.4,30.62,North,5,0.0,0.0,89,0.00,,,0.00,meteohub,2013-11-23 16:45:00,
2013-11-23 10:50:00,31.1,28.2,30.63,NNW,340,0.0,0.0,89,0.00,,,0.00,meteohub,2013-11-23 16:50:00,
2013-11-23 10:55:00,30.9,28.0,30.62,North,351,0.0,0.0,89,0.00,,,0.00,meteohub,2013-11-23 16:55:00,
2013-11-23 11:00:00,30.9,28.0,30.62,North,5,0.0,0.0,89,0.00,,,0.00,meteohub,2013-11-23 17:00:00,
2013-11-23 11:05:00,31.1,28.2,30.62,NE,38,0.0,0.0,89,0.00,,,0.00,meteohub,2013-11-23 17:05:00,
2013-11-23 11:10:00,31.1,28.2,30.61,North,355,0.0,0.0,89,0.00,,,0.00,meteohub,2013-11-23 17:10:00,
2013-11-23 11:15:00,31.3,28.4,30.61,North,5,0.0,0.0,89,0.00,,,0.00,meteohub,2013-11-23 17:15:00,
2013-11-23 11:20:00,31.3,28.4,30.62,North,5,0.0,0.0,89,0.00,,,0.00,meteohub,2013-11-23 17:20:00,
2013-11-23 11:25:00,31.5,28.9,30.62,NNE,15,0.0,0.0,90,0.00,,,0.00,meteohub,2013-11-23 17:25:00,
2013-11-23 11:30:00,31.5,28.9,30.61,NNE,28,0.0,0.0,90,0.00,,,0.00,meteohub,2013-11-23 17:30:00,
2013-11-23 11:35:00,31.5,28.9,30.61,North,0,0.0,0.0,90,0.00,,,0.00,meteohub,2013-11-23 17:35:00,
2013-11-23 11:40:00,31.6,29.1,30.61,North,0,0.0,0.0,90,0.00,,,0.00,meteohub,2013-11-23 17:40:00,
2013-11-23 11:45:00,31.6,29.1,30.60,North,355,0.0,0.0,90,0.00,,,0.00,meteohub,2013-11-23 17:45:00,
2013-11-23 11:50:00,31.6,29.1,30.60,NNE,16,0.0,0.0,90,0.00,,,0.00,meteohub,2013-11-23 17:50:00,
2013-11-23 11:55:00,31.6,29.1,30.61,NNW,343,0.0,0.0,90,0.00,,,0.00,meteohub,2013-11-23 17:55:00,
2013-11-23 12:00:00,31.5,28.9,30.60,NNW,339,0.0,0.0,90,0.00,,,0.00,meteohub,2013-11-23 18:00:00,
2013-11-23 12:05:00,31.5,28.9,30.60,ENE,63,0.0,0.0,90,0.00,,,0.00,meteohub,2013-11-23 18:05:00,
2013-11-23 12:10:00,31.6,29.1,30.59,NNW,327,0.0,0.0,90,0.00,,,0.00,meteohub,2013-11-23 18:10:00,
2013-11-23 12:15:00,31.6,29.1,30.60,NNW,346,0.0,0.0,90,0.00,,,0.00,meteohub,2013-11-23 18:15:00,
2013-11-23 12:20:00,31.6,29.3,30.59,NNW,338,0.0,0.0,91,0.00,,,0.00,meteohub,2013-11-23 18:20:00,
2013-11-23 12:25:00,31.8,29.3,30.59,NNW,346,0.0,0.0,90,0.00,,,0.00,meteohub,2013-11-23 18:25:00,
2013-11-23 12:30:00,31.6,29.1,30.59,NW,310,0.0,0.0,90,0.00,,,0.00,meteohub,2013-11-23 18:30:00,
2013-11-23 12:35:00,31.6,29.1,30.58,North,5,0.0,0.0,90,0.00,,,0.00,meteohub,2013-11-23 18:35:00,
2013-11-23 12:40:00,31.6,29.1,30.58,NNE,26,0.0,0.0,90,0.00,,,0.00,meteohub,2013-11-23 18:40:00,
2013-11-23 12:46:00,31.8,29.3,30.58,NNW,332,0.0,0.0,90,0.00,,,0.00,meteohub,2013-11-23 18:46:00,
2013-11-23 12:51:00,31.8,29.3,30.58,North,5,0.0,0.0,90,0.00,,,0.00,meteohub,2013-11-23 18:51:00,
2013-11-23 12:56:00,31.8,29.3,30.59,NNW,348,0.0,0.0,90,0.00,,,0.00,meteohub,2013-11-23 18:56:00,
2013-11-23 13:01:00,31.8,28.9,30.58,North,11,0.0,0.0,89,0.00,,,0.00,meteohub,2013-11-23 19:01:00,
2013-11-23 13:06:00,32.2,29.3,30.58,North,5,0.0,0.0,89,0.00,,,0.00,meteohub,2013-11-23 19:06:00,
2013-11-23 13:11:00,32.2,29.3,30.58,NNW,337,0.0,0.0,89,0.00,,,0.00,meteohub,2013-11-23 19:11:00,
2013-11-23 13:16:00,32.4,29.5,30.58,North,10,0.0,0.0,89,0.00,,,0.00,meteohub,2013-11-23 19:16:00,
2013-11-23 13:21:00,32.4,29.5,30.57,North,5,0.0,0.0,89,0.00,,,0.00,meteohub,2013-11-23 19:21:00,
2013-11-23 13:26:00,32.4,29.5,30.57,NNW,335,0.0,0.0,89,0.00,,,0.00,meteohub,2013-11-23 19:26:00,
2013-11-23 13:31:00,32.4,29.5,30.57,NNW,329,0.0,0.0,89,0.00,,,0.00,meteohub,2013-11-23 19:31:00,
2013-11-23 13:36:00,32.5,29.3,30.57,NNW,348,0.0,0.0,88,0.00,,,0.00,meteohub,2013-11-23 19:36:00,
2013-11-23 13:41:00,32.5,29.3,30.57,NNW,346,0.0,0.0,88,0.00,,,0.00,meteohub,2013-11-23 19:41:00,
2013-11-23 13:46:00,32.5,29.3,30.56,NW,323,0.0,0.0,88,0.00,,,0.00,meteohub,2013-11-23 19:46:00,
2013-11-23 13:51:00,32.5,29.3,30.56,NW,317,0.0,0.0,88,0.00,,,0.00,meteohub,2013-11-23 19:51:00,
2013-11-23 13:56:00,32.7,29.5,30.55,NNW,336,0.0,0.0,88,0.00,,,0.00,meteohub,2013-11-23 19:56:00,
2013-11-23 14:01:00,32.7,29.3,30.55,NW,322,0.0,0.0,87,0.00,,,0.00,meteohub,2013-11-23 20:01:00,
2013-11-23 14:06:00,32.9,29.5,30.55,NNE,20,0.0,0.0,87,0.00,,,0.00,meteohub,2013-11-23 20:06:00,
2013-11-23 14:11:00,33.1,29.7,30.55,North,5,0.0,0.0,87,0.00,,,0.00,meteohub,2013-11-23 20:11:00,
2013-11-23 14:16:00,33.1,29.7,30.55,NNW,338,0.0,0.0,87,0.00,,,0.00,meteohub,2013-11-23 20:16:00,
2013-11-23 14:21:00,33.3,29.8,30.54,NNW,346,0.0,0.0,87,0.00,,,0.00,meteohub,2013-11-23 20:21:00,
2013-11-23 14:26:00,33.3,29.5,30.55,NNW,348,0.0,0.0,86,0.00,,,0.00,meteohub,2013-11-23 20:26:00,
2013-11-23 14:31:00,33.4,30.0,30.55,NNE,21,0.0,0.0,87,0.00,,,0.00,meteohub,2013-11-23 20:31:00,
2013-11-23 14:36:00,33.4,29.7,30.55,North,11,0.0,0.0,86,0.00,,,0.00,meteohub,2013-11-23 20:36:00,
2013-11-23 14:41:00,33.4,30.0,30.55,NNE,32,0.0,0.0,87,0.00,,,0.00,meteohub,2013-11-23 20:41:00,
2013-11-23 14:46:00,33.4,29.7,30.55,NNE,18,0.0,0.0,86,0.00,,,0.00,meteohub,2013-11-23 20:46:00,
2013-11-23 14:51:00,33.6,30.2,30.54,NNE,13,0.0,0.0,87,0.00,,,0.01,meteohub,2013-11-23 20:51:00,
2013-11-23 14:56:00,33.6,29.8,30.55,WNW,300,0.0,0.0,86,0.01,,,0.01,meteohub,2013-11-23 20:56:00,
2013-11-23 15:01:00,33.8,31.6,30.55,North,9,0.0,0.0,92,0.01,,,0.01,meteohub,2013-11-23 21:01:00,
2013-11-23 15:06:00,34.0,30.2,30.55,NNE,18,0.0,0.0,86,0.01,,,0.01,meteohub,2013-11-23 21:06:00,
2013-11-23 15:11:00,34.0,30.0,30.56,North,11,0.0,0.0,85,0.01,,,0.01,meteohub,2013-11-23 21:11:00,
2013-11-23 15:16:00,34.0,30.2,30.55,NNE,32,0.0,0.0,86,0.01,,,0.01,meteohub,2013-11-23 21:16:00,
2013-11-23 15:21:00,34.0,30.2,30.55,NE,46,0.0,0.0,86,0.01,,,0.01,meteohub,2013-11-23 21:21:00,
2013-11-23 15:26:00,34.0,30.0,30.55,North,0,0.0,0.0,85,0.01,,,0.01,meteohub,2013-11-23 21:26:00,
2013-11-23 15:31:00,34.0,30.0,30.55,NNE,32,0.0,0.0,85,0.01,,,0.01,meteohub,2013-11-23 21:31:00,
2013-11-23 15:36:00,34.0,30.2,30.56,North,11,0.0,0.0,86,0.01,,,0.01,meteohub,2013-11-23 21:36:00,
2013-11-23 15:41:00,34.0,30.2,30.56,North,355,0.0,0.0,86,0.01,,,0.01,meteohub,2013-11-23 21:41:00,
2013-11-23 15:46:00,34.0,30.0,30.56,NNW,348,0.0,0.0,85,0.01,,,0.01,meteohub,2013-11-23 21:46:00,
2013-11-23 15:52:00,34.0,30.0,30.56,NNE,24,0.0,0.0,85,0.00,,,0.01,meteohub,2013-11-23 21:52:00,
2013-11-23 15:57:00,34.0,30.2,30.56,North,349,0.0,0.0,86,0.00,,,0.01,meteohub,2013-11-23 21:57:00,
2013-11-23 16:02:00,34.0,30.2,30.56,NNW,340,0.0,0.0,86,0.00,,,0.01,meteohub,2013-11-23 22:02:00,
2013-11-23 16:07:00,34.2,30.4,30.56,NW,319,0.0,0.0,86,0.00,,,0.01,meteohub,2013-11-23 22:07:00,
2013-11-23 16:12:00,34.2,30.4,30.56,NW,319,0.0,0.0,86,0.00,,,0.01,meteohub,2013-11-23 22:12:00,
2013-11-23 16:17:00,34.2,30.4,30.56,North,350,0.0,0.0,86,0.00,,,0.01,meteohub,2013-11-23 22:17:00,
2013-11-23 16:22:00,34.2,30.2,30.56,North,350,0.0,0.0,85,0.00,,,0.01,meteohub,2013-11-23 22:22:00,
2013-11-23 16:27:00,34.2,30.4,30.56,NNW,333,0.0,0.0,86,0.00,,,0.01,meteohub,2013-11-23 22:27:00,
2013-11-23 16:32:00,34.2,30.4,30.55,NE,35,0.0,0.0,86,0.00,,,0.01,meteohub,2013-11-23 22:32:00,
2013-11-23 16:37:00,34.2,30.4,30.55,NE,40,0.0,0.0,86,0.00,,,0.01,meteohub,2013-11-23 22:37:00,
2013-11-23 16:42:00,34.2,30.4,30.55,North,10,0.0,0.0,86,0.00,,,0.01,meteohub,2013-11-23 22:42:00,
2013-11-23 16:47:00,34.3,30.6,30.55,North,350,0.0,0.0,86,0.00,,,0.01,meteohub,2013-11-23 22:47:00,
2013-11-23 16:52:00,34.3,30.6,30.55,NNW,344,0.0,0.0,86,0.00,,,0.01,meteohub,2013-11-23 22:52:00,
2013-11-23 16:57:00,34.3,30.4,30.55,NNW,347,0.0,0.0,85,0.00,,,0.01,meteohub,2013-11-23 22:57:00,
2013-11-23 17:02:00,34.3,30.0,30.55,NNW,346,0.0,0.0,84,0.00,,,0.01,meteohub,2013-11-23 23:02:00,
2013-11-23 17:07:00,34.3,30.4,30.55,North,5,0.0,0.0,85,0.00,,,0.01,meteohub,2013-11-23 23:07:00,
2013-11-23 17:10:00,34.3,30.4,30.55,North,355,0.0,0.0,85,0.00,,,0.01,meteohub,2013-11-23 23:10:00,
2013-11-23 17:15:00,34.3,30.0,30.55,NNW,337,0.0,0.0,84,0.00,,,0.01,meteohub,2013-11-23 23:15:00,
2013-11-23 17:20:00,34.3,30.0,30.55,NNW,337,0.0,0.0,84,0.00,,,0.01,meteohub,2013-11-23 23:20:00,
2013-11-23 17:25:00,34.3,31.5,30.55,NW,324,0.0,0.0,89,0.00,,,0.01,meteohub,2013-11-23 23:25:00,
2013-11-23 17:30:00,34.3,31.5,30.55,NW,325,0.0,0.0,89,0.00,,,0.01,meteohub,2013-11-23 23:30:00,
2013-11-23 17:35:00,34.3,30.0,30.55,NNW,338,0.0,0.0,84,0.00,,,0.01,meteohub,2013-11-23 23:35:00,
2013-11-23 17:40:00,34.2,29.5,30.54,NNW,330,0.0,0.0,83,0.00,,,0.01,meteohub,2013-11-23 23:40:00,
2013-11-23 17:45:00,34.2,29.5,30.54,NNW,344,0.0,0.0,83,0.00,,,0.01,meteohub,2013-11-23 23:45:00,
2013-11-23 17:50:00,34.2,29.5,30.55,WNW,302,0.0,0.0,83,0.00,,,0.01,meteohub,2013-11-23 23:50:00,
2013-11-23 17:55:00,34.2,29.3,30.55,NW,318,0.0,0.0,82,0.00,,,0.01,meteohub,2013-11-23 23:55:00,
2013-11-23 18:00:00,34.2,29.3,30.55,NNE,32,0.0,0.0,82,0.00,,,0.01,meteohub,2013-11-24 00:00:00,
2013-11-23 18:05:00,34.3,29.5,30.56,NNW,328,0.0,0.0,82,0.00,,,0.01,meteohub,2013-11-24 00:05:00,
2013-11-23 18:10:00,34.3,29.1,30.55,NNW,348,0.0,0.0,81,0.00,,,0.01,meteohub,2013-11-24 00:10:00,
2013-11-23 18:15:00,34.3,28.8,30.55,North,9,0.0,0.0,80,0.00,,,0.01,meteohub,2013-11-24 00:15:00,
2013-11-23 18:20:00,34.3,29.1,30.56,NNE,22,0.0,0.0,81,0.00,,,0.01,meteohub,2013-11-24 00:20:00,
2013-11-23 18:25:00,34.3,29.1,30.55,North,350,0.0,0.0,81,0.00,,,0.01,meteohub,2013-11-24 00:25:00,
2013-11-23 18:30:00,34.3,29.1,30.55,NNW,333,0.0,0.0,81,0.00,,,0.01,meteohub,2013-11-24 00:30:00,
2013-11-23 18:35:00,34.3,29.1,30.56,NNW,328,0.0,0.0,81,0.00,,,0.01,meteohub,2013-11-24 00:35:00,
2013-11-23 18:41:00,34.3,29.1,30.56,North,0,0.0,0.0,81,0.00,,,0.01,meteohub,2013-11-24 00:41:00,
2013-11-23 18:46:00,34.3,28.8,30.56,North,5,0.0,0.0,80,0.00,,,0.01,meteohub,2013-11-24 00:46:00,
2013-11-23 18:51:00,34.3,28.8,30.56,NNW,334,0.0,0.0,80,0.00,,,0.01,meteohub,2013-11-24 00:51:00,
2013-11-23 18:56:00,34.2,28.6,30.56,North,351,0.0,0.0,80,0.00,,,0.01,meteohub,2013-11-24 00:56:00,
2013-11-23 19:01:00,34.2,28.6,30.57,NNW,343,0.0,0.0,80,0.00,,,0.01,meteohub,2013-11-24 01:01:00,
2013-11-23 19:06:00,34.2,28.4,30.56,NNW,346,0.0,0.0,79,0.00,,,0.01,meteohub,2013-11-24 01:06:00,
2013-11-23 19:11:00,34.2,28.4,30.57,NNW,340,0.0,0.0,79,0.00,,,0.01,meteohub,2013-11-24 01:11:00,
2013-11-23 19:16:00,34.2,28.6,30.57,NNW,347,0.0,0.0,80,0.00,,,0.01,meteohub,2013-11-24 01:16:00,
2013-11-23 19:21:00,34.2,28.6,30.56,North,355,0.0,0.0,80,0.00,,,0.01,meteohub,2013-11-24 01:21:00,
2013-11-23 19:26:00,34.2,28.4,30.56,NNW,338,0.0,0.0,79,0.00,,,0.01,meteohub,2013-11-24 01:26:00,
2013-11-23 19:31:00,34.2,28.4,30.57,NNE,15,0.0,0.0,79,0.00,,,0.01,meteohub,2013-11-24 01:31:00,
2013-11-23 19:36:00,34.2,28.4,30.57,NNW,344,0.0,0.0,79,0.00,,,0.01,meteohub,2013-11-24 01:36:00,
2013-11-23 19:41:00,34.2,28.0,30.57,NW,323,0.0,0.0,78,0.00,,,0.01,meteohub,2013-11-24 01:41:00,
2013-11-23 19:46:00,34.2,28.4,30.56,North,5,0.0,0.0,79,0.00,,,0.01,meteohub,2013-11-24 01:46:00,
2013-11-23 19:51:00,34.2,28.0,30.56,North,355,0.0,0.0,78,0.00,,,0.01,meteohub,2013-11-24 01:51:00,
2013-11-23 19:56:00,34.2,27.7,30.56,NNW,333,0.0,0.0,77,0.00,,,0.01,meteohub,2013-11-24 01:56:00,
2013-11-23 20:01:00,34.2,27.7,30.57,NNW,332,0.0,0.0,77,0.00,,,0.01,meteohub,2013-11-24 02:01:00,
2013-11-23 20:06:00,34.2,27.7,30.56,NE,50,0.0,0.0,77,0.00,,,0.01,meteohub,2013-11-24 02:06:00,
2013-11-23 20:11:00,34.2,28.0,30.56,NNE,17,0.0,0.0,78,0.00,,,0.01,meteohub,2013-11-24 02:11:00,
2013-11-23 20:16:00,34.2,27.7,30.55,NW,319,0.0,0.0,77,0.00,,,0.01,meteohub,2013-11-24 02:16:00,
2013-11-23 20:21:00,34.2,27.7,30.56,NNW,327,0.0,0.0,77,0.00,,,0.01,meteohub,2013-11-24 02:21:00,
2013-11-23 20:26:00,34.0,27.9,30.56,North,9,0.0,0.0,78,0.00,,,0.01,meteohub,2013-11-24 02:26:00,
2013-11-23 20:31:00,34.2,27.7,30.56,NNW,336,0.0,0.0,77,0.00,,,0.01,meteohub,2013-11-24 02:31:00,
2013-11-23 20:36:00,34.0,27.9,30.56,NNW,335,0.0,0.0,78,0.00,,,0.01,meteohub,2013-11-24 02:36:00,
2013-11-23 20:41:00,34.0,27.9,30.57,NNW,336,0.0,0.0,78,0.00,,,0.01,meteohub,2013-11-24 02:41:00,
2013-11-23 20:46:00,34.0,27.9,30.57,North,9,0.0,0.0,78,0.00,,,0.01,meteohub,2013-11-24 02:46:00,
2013-11-23 20:51:00,34.0,28.2,30.58,North,5,0.0,0.0,79,0.00,,,0.01,meteohub,2013-11-24 02:51:00,
2013-11-23 20:56:00,34.0,28.2,30.58,North,5,0.0,0.0,79,0.00,,,0.01,meteohub,2013-11-24 02:56:00,
2013-11-23 21:01:00,34.0,27.9,30.58,North,11,0.0,0.0,78,0.00,,,0.01,meteohub,2013-11-24 03:01:00,
2013-11-23 21:06:00,34.0,27.9,30.59,North,5,0.0,0.0,78,0.00,,,0.01,meteohub,2013-11-24 03:06:00,
2013-11-23 21:11:00,34.0,27.5,30.59,NNW,338,0.0,0.0,77,0.00,,,0.01,meteohub,2013-11-24 03:11:00,
2013-11-23 21:16:00,34.0,27.9,30.58,NNE,29,0.0,0.0,78,0.00,,,0.01,meteohub,2013-11-24 03:16:00,
2013-11-23 21:21:00,34.2,27.7,30.58,NE,52,0.0,0.0,77,0.00,,,0.01,meteohub,2013-11-24 03:21:00,
2013-11-23 21:26:00,34.2,27.7,30.58,WNW,293,0.0,0.0,77,0.00,,,0.01,meteohub,2013-11-24 03:26:00,
2013-11-23 21:31:00,34.2,27.7,30.58,North,5,0.0,0.0,77,0.00,,,0.01,meteohub,2013-11-24 03:31:00,
2013-11-23 21:36:00,34.2,27.3,30.57,NNW,336,0.0,0.0,76,0.00,,,0.01,meteohub,2013-11-24 03:36:00,
2013-11-23 21:41:00,34.2,27.7,30.58,NNW,336,0.0,0.0,77,0.00,,,0.01,meteohub,2013-11-24 03:41:00,
2013-11-23 21:46:00,34.2,27.7,30.58,NE,36,0.0,0.0,77,0.00,,,0.01,meteohub,2013-11-24 03:46:00,
2013-11-23 21:51:00,34.2,27.7,30.58,North,11,0.0,0.0,77,0.00,,,0.01,meteohub,2013-11-24 03:51:00,
2013-11-23 21:56:00,34.2,27.7,30.58,NE,47,0.0,0.0,77,0.00,,,0.01,meteohub,2013-11-24 03:56:00,
2013-11-23 22:01:00,34.2,28.0,30.58,North,5,0.0,0.0,78,0.00,,,0.01,meteohub,2013-11-24 04:01:00,
2013-11-23 22:06:00,34.2,27.7,30.58,NNW,344,0.0,0.0,77,0.00,,,0.01,meteohub,2013-11-24 04:06:00,
2013-11-23 22:11:00,34.3,27.5,30.58,ENE,60,0.0,0.0,76,0.00,,,0.01,meteohub,2013-11-24 04:11:00,
2013-11-23 22:16:00,34.3,27.9,30.58,NNW,331,0.0,0.0,77,0.00,,,0.01,meteohub,2013-11-24 04:16:00,
2013-11-23 22:21:00,34.3,27.9,30.58,NNE,33,0.0,0.0,77,0.00,,,0.01,meteohub,2013-11-24 04:21:00,
2013-11-23 22:26:00,34.3,27.9,30.58,NNE,25,0.0,0.0,77,0.00,,,0.01,meteohub,2013-11-24 04:26:00,
2013-11-23 22:31:00,34.3,27.9,30.58,NNE,30,0.0,0.0,77,0.00,,,0.01,meteohub,2013-11-24 04:31:00,
2013-11-23 22:36:00,34.3,27.9,30.58,North,355,0.0,0.0,77,0.00,,,0.01,meteohub,2013-11-24 04:36:00,
2013-11-23 22:41:00,34.3,27.9,30.58,NE,36,0.0,0.0,77,0.00,,,0.01,meteohub,2013-11-24 04:41:00,
2013-11-23 22:46:00,34.3,27.9,30.59,NNE,28,0.0,0.0,77,0.00,,,0.01,meteohub,2013-11-24 04:46:00,
2013-11-23 22:51:00,34.3,27.9,30.59,NNE,30,0.0,0.0,77,0.00,,,0.01,meteohub,2013-11-24 04:51:00,
2013-11-23 22:56:00,34.3,28.2,30.58,North,5,0.0,0.0,78,0.00,,,0.01,meteohub,2013-11-24 04:56:00,
2013-11-23 23:01:00,34.3,27.9,30.58,NNE,15,0.0,0.0,77,0.00,,,0.01,meteohub,2013-11-24 05:01:00,
2013-11-23 23:02:00,34.3,27.9,30.58,NNE,15,0.0,0.0,77,0.00,,,0.01,meteohub,2013-11-24 05:02:00,
2013-11-23 23:03:00,34.3,27.9,30.59,North,5,0.0,0.0,77,0.00,,,0.01,meteohub,2013-11-24 05:03:00,
2013-11-23 23:08:00,34.5,28.4,30.59,NW,317,0.0,0.0,78,0.00,,,0.01,meteohub,2013-11-24 05:08:00,
2013-11-23 23:13:00,34.5,28.4,30.58,North,350,0.0,0.0,78,0.00,,,0.01,meteohub,2013-11-24 05:13:00,
2013-11-23 23:18:00,34.5,28.0,30.58,North,350,0.0,0.0,77,0.00,,,0.01,meteohub,2013-11-24 05:18:00,
2013-11-23 23:23:00,34.5,28.0,30.58,NNW,344,0.0,0.0,77,0.00,,,0.01,meteohub,2013-11-24 05:23:00,
2013-11-23 23:28:00,34.5,28.0,30.59,NNW,342,0.0,0.0,77,0.00,,,0.01,meteohub,2013-11-24 05:28:00,
2013-11-23 23:33:00,34.5,28.0,30.60,North,355,0.0,0.0,77,0.00,,,0.01,meteohub,2013-11-24 05:33:00,
2013-11-23 23:38:00,34.5,27.7,30.59,NNW,329,0.0,0.0,76,0.00,,,0.01,meteohub,2013-11-24 05:38:00,
2013-11-23 23:43:00,34.5,27.7,30.60,NNW,333,0.0,0.0,76,0.00,,,0.01,meteohub,2013-11-24 05:43:00,
2013-11-23 23:48:00,34.5,27.7,30.60,NNW,336,0.0,0.0,76,0.00,,,0.01,meteohub,2013-11-24 05:48:00,
2013-11-23 23:53:00,34.5,27.7,30.60,NNW,339,0.0,0.0,76,0.00,,,0.01,meteohub,2013-11-24 05:53:00,
2013-11-23 23:57:00,34.5,28.0,30.60,NNW,339,0.0,0.0,77,0.00,,,0.01,meteohub,2013-11-24 05:57:00,